EW2734 Weather Reports


Display with metric or nautical units.
time (UTC)temp
F
wind
direction
speed
MPH
gust
MPH
rain 1hr
in
rain 24hr
in
rain mn
in
humidity
%
barometer
mb
20191212221632 53 82 0.0 0.0 0.00 0.00 0.00 37 1015.6
20191212220159 54 82 0.0 3.0 0.00 0.00 0.00 37 1015.5
20191212214616 54 82 0.0 2.0 0.00 0.00 0.00 36 1015.7
20191212213304 54 82 0.0 7.0 0.00 0.00 0.00 35 1015.9
20191212211734 55 82 0.0 2.0 0.00 0.00 0.00 34 1016.1
20191212210209 55 82 5.0 8.0 0.00 0.00 0.00 33 1016.1
20191212204725 55 82 2.0 7.0 0.00 0.00 0.00 34 1016.0
20191212203126 55 82 4.0 6.0 0.00 0.00 0.00 33 1016.0
20191212201639 56 82 6.0 9.0 0.00 0.00 0.00 34 1016.2
20191212200053 56 82 2.0 8.0 0.00 0.00 0.00 33 1016.3
20191212194625 56 81 5.0 8.0 0.00 0.00 0.00 32 1016.6
20191212193100 56 82 4.0 10.0 0.00 0.00 0.00 33 1016.8
20191212191602 55 82 7.0 11.0 0.00 0.00 0.00 34 1017.1
20191212190110 55 82 5.0 8.0 0.00 0.00 0.00 35 1017.2
20191212184621 54 82 7.0 10.0 0.00 0.00 0.00 35 1017.6
20191212183129 55 82 7.0 11.0 0.00 0.00 0.00 36 1017.6
20191212181652 53 82 6.0 9.0 0.00 0.00 0.00 36 1018.0
20191212180141 53 82 3.0 8.0 0.00 0.00 0.00 39 1018.3
20191212174635 52 81 7.0 10.0 0.00 0.00 0.00 42 1018.6
20191212173116 50 82 5.0 9.0 0.00 0.00 0.00 47 1018.8
20191212171604 49 82 6.0 10.0 0.00 0.00 0.00 52 1019.2
20191212170012 48 81 7.0 11.0 0.00 0.00 0.00 55 1019.6
20191212164513 46 82 6.0 10.0 0.00 0.00 0.00 56 1019.4
20191212163259 45 82 4.0 10.0 0.00 0.00 0.00 60 1019.4
20191212161647 44 82 7.0 12.0 0.00 0.00 0.00 62 1019.2
20191212160240 42 81 8.0 11.0 0.00 0.00 0.00 64 1019.2
20191212154657 41 82 8.0 12.0 0.00 0.00 0.00 69 1019.2
20191212153203 39 82 7.0 11.0 0.00 0.00 0.00 73 1018.9
20191212151624 36 82 7.0 10.0 0.00 0.00 0.00 78 1018.8
20191212150150 35 82 7.0 11.0 0.00 0.00 0.00 80 1018.9
20191212144726 35 82 7.0 12.0 0.00 0.00 0.00 79 1018.7
20191212143156 34 82 11.0 14.0 0.00 0.00 0.00 80 1018.8
20191212141705 33 81 9.0 12.0 0.00 0.00 0.00 84 1018.8
20191212140116 31 82 7.0 11.0 0.00 0.00 0.00 87 1018.8
20191212134555 30 82 8.0 11.0 0.00 0.00 0.00 88 1018.8
20191212133144 29 82 7.0 9.0 0.00 0.00 0.00 88 1018.5
20191212131543 30 82 4.0 8.0 0.00 0.00 0.00 89 1018.3
20191212130048 29 82 4.0 5.0 0.00 0.00 0.00 91 1018.3
20191212124557 30 82 0.0 1.0 0.00 0.00 0.00 90 1018.0
20191212123032 31 82 0.0 1.0 0.00 0.00 0.00 90 1017.9
20191212121547 33 82 1.0 3.0 0.00 0.00 0.00 90 1017.7
20191212120017 35 81 2.0 5.0 0.00 0.00 0.00 90 1017.7
20191212114518 36 82 3.0 5.0 0.00 0.00 0.00 90 1017.8
20191212113003 37 82 3.0 6.0 0.00 0.00 0.00 89 1017.8
20191212111844 39 82 5.0 8.0 0.00 0.00 0.00 89 1017.8
20191212110239 40 81 6.0 11.0 0.00 0.00 0.00 89 1017.8
20191212104642 40 82 7.0 13.0 0.00 0.00 0.00 89 1017.5
20191212103141 40 82 8.0 13.0 0.00 0.00 0.00 89 1017.5
20191212101807 40 82 8.0 15.0 0.00 0.00 0.00 88 1017.3
20191212100244 41 81 9.0 13.0 0.00 0.00 0.00 87 1017.5
20191212094829 42 82 9.0 17.0 0.00 0.00 0.00 86 1017.6
20191212093211 42 82 11.0 16.0 0.00 0.00 0.00 86 1017.6
20191212091820 42 82 14.0 20.0 0.00 0.00 0.00 85 1017.3
20191212090211 43 81 16.0 21.0 0.00 0.00 0.00 85 1017.1
20191212084631 43 81 14.0 20.0 0.00 0.00 0.00 84 1017.1
20191212083107 43 81 16.0 21.0 0.00 0.00 0.00 84 1017.1
20191212081708 43 82 17.0 27.0 0.00 0.00 0.00 84 1017.2
20191212080209 43 82 15.0 21.0 0.00 0.00 0.00 84 1017.3
20191212074600 43 82 16.0 23.0 0.00 0.00 0.00 84 1017.3
20191212073122 43 81 16.0 21.0 0.00 0.00 0.00 84 1017.4
20191212071657 43 81 17.0 26.0 0.00 0.00 0.00 84 1017.2
20191212070119 43 82 20.0 26.0 0.00 0.00 0.00 85 1017.3
20191212064641 42 82 16.0 24.0 0.00 0.00 0.00 84 1017.9
20191212063132 42 82 19.0 28.0 0.00 0.00 0.00 84 1017.3
20191212061609 42 82 17.0 26.0 0.00 0.00 0.00 85 1017.5
20191212060127 42 81 17.0 23.0 0.00 0.00 0.00 84 1018.2
20191212054623 42 82 14.0 21.0 0.00 0.00 0.00 84 1018.3
20191212053119 42 82 13.0 21.0 0.00 0.00 0.00 84 1018.1
20191212051538 41 82 17.0 25.0 0.00 0.00 0.00 84 1018.0
20191212050127 42 81 15.0 22.0 0.00 0.00 0.00 83 1018.3
20191212044527 42 82 15.0 25.0 0.00 0.00 0.00 82 1018.3
20191212043140 42 82 18.0 29.0 0.00 0.00 0.00 81 1018.4
20191212041555 42 82 17.0 22.0 0.00 0.00 0.00 81 1018.7
20191212040105 42 82 16.0 23.0 0.00 0.00 0.00 81 1018.8
20191212034540 42 82 15.0 22.0 0.00 0.00 0.00 80 1018.8
20191212033120 43 82 18.0 24.0 0.00 0.00 0.00 79 1019.0
20191212031603 43 82 15.0 21.0 0.00 0.00 0.00 77 1019.2
20191212030033 43 82 15.0 21.0 0.00 0.00 0.00 76 1019.5
20191212024516 43 81 15.0 23.0 0.00 0.00 0.00 75 1019.7
20191212023009 43 82 16.0 26.0 0.00 0.00 0.00 74 1020.1
20191212021535 43 82 17.0 22.0 0.00 0.00 0.00 74 1020.4
20191212020022 43 82 15.0 21.0 0.00 0.00 0.00 73 1020.5
20191212014510 44 82 17.0 22.0 0.00 0.00 0.00 72 1020.6
20191212013002 44 82 15.0 20.0 0.00 0.00 0.00 71 1020.9
20191212011747 44 82 12.0 18.0 0.00 0.00 0.00 70 1021.2
20191212010145 44 82 12.0 16.0 0.00 0.00 0.00 70 1021.2
20191212004751 45 82 12.0 20.0 0.00 0.00 0.00 69 1021.3
20191212003154 45 81 10.0 16.0 0.00 0.00 0.00 68 1021.4
20191212001924 46 82 14.0 20.0 0.00 0.00 0.00 67 1021.4
20191212000216 48 82 16.0 24.0 0.00 0.00 0.00 65 1021.6
20191211234623 48 82 19.0 23.0 0.00 0.00 0.00 64 1021.7
20191211233142 50 82 19.0 27.0 0.00 0.00 0.00 62 1021.5
20191211231706 51 81 20.0 30.0 0.00 0.00 0.00 59 1021.6
20191211230334 51 82 18.0 24.0 0.00 0.00 0.00 55 1021.5
20191211224714 53 81 18.0 27.0 0.00 0.00 0.00 52 1021.5
20191211223142 53 82 18.0 25.0 0.00 0.00 0.00 50 1021.7